sensor_id;sensor_type;location;lat;lon;timestamp;P1;durP1;ratioP1;P2;durP2;ratioP2
75220;SDS011;63802;53.232;6.570;2022-11-11T00:01:07;14.75;;;5.63;;
75220;SDS011;63802;53.232;6.570;2022-11-11T00:03:37;14.82;;;4.97;;
75220;SDS011;63802;53.232;6.570;2022-11-11T00:06:04;14.63;;;5.50;;
75220;SDS011;63802;53.232;6.570;2022-11-11T00:08:34;12.32;;;5.43;;
75220;SDS011;63802;53.232;6.570;2022-11-11T00:11:00;13.13;;;5.47;;
75220;SDS011;63802;53.232;6.570;2022-11-11T00:13:27;15.43;;;6.25;;
75220;SDS011;63802;53.232;6.570;2022-11-11T00:15:53;12.52;;;5.78;;
75220;SDS011;63802;53.232;6.570;2022-11-11T00:18:19;13.50;;;5.60;;
75220;SDS011;63802;53.232;6.570;2022-11-11T00:21:03;12.95;;;5.32;;
75220;SDS011;63802;53.232;6.570;2022-11-11T00:23:47;18.20;;;6.00;;
75220;SDS011;63802;53.232;6.570;2022-11-11T00:26:31;11.90;;;5.65;;
75220;SDS011;63802;53.232;6.570;2022-11-11T00:28:56;15.70;;;6.68;;
75220;SDS011;63802;53.232;6.570;2022-11-11T00:31:22;14.82;;;5.85;;
75220;SDS011;63802;53.232;6.570;2022-11-11T00:33:47;15.45;;;6.25;;
75220;SDS011;63802;53.232;6.570;2022-11-11T00:36:12;13.55;;;5.90;;
75220;SDS011;63802;53.232;6.570;2022-11-11T00:38:38;13.30;;;6.55;;
75220;SDS011;63802;53.232;6.570;2022-11-11T00:41:09;18.15;;;6.30;;
75220;SDS011;63802;53.232;6.570;2022-11-11T00:43:37;16.17;;;6.38;;
75220;SDS011;63802;53.232;6.570;2022-11-11T00:46:02;17.20;;;6.07;;
75220;SDS011;63802;53.232;6.570;2022-11-11T00:48:47;13.95;;;6.22;;
75220;SDS011;63802;53.232;6.570;2022-11-11T00:51:30;13.15;;;5.53;;
75220;SDS011;63802;53.232;6.570;2022-11-11T00:53:56;13.05;;;5.97;;
75220;SDS011;63802;53.232;6.570;2022-11-11T00:56:22;16.45;;;6.28;;
75220;SDS011;63802;53.232;6.570;2022-11-11T00:58:47;12.80;;;5.40;;
75220;SDS011;63802;53.232;6.570;2022-11-11T01:01:13;17.92;;;6.30;;
75220;SDS011;63802;53.232;6.570;2022-11-11T01:03:38;15.18;;;6.40;;
75220;SDS011;63802;53.232;6.570;2022-11-11T01:06:04;14.15;;;6.22;;
75220;SDS011;63802;53.232;6.570;2022-11-11T01:08:30;14.75;;;5.95;;
75220;SDS011;63802;53.232;6.570;2022-11-11T01:10:56;16.02;;;6.38;;
75220;SDS011;63802;53.232;6.570;2022-11-11T01:13:23;15.55;;;6.55;;
75220;SDS011;63802;53.232;6.570;2022-11-11T01:15:50;16.63;;;6.05;;
75220;SDS011;63802;53.232;6.570;2022-11-11T01:18:18;14.13;;;6.30;;
75220;SDS011;63802;53.232;6.570;2022-11-11T01:20:46;17.63;;;6.68;;
75220;SDS011;63802;53.232;6.570;2022-11-11T01:23:12;21.73;;;6.50;;
75220;SDS011;63802;53.232;6.570;2022-11-11T01:25:40;12.38;;;6.30;;
75220;SDS011;63802;53.232;6.570;2022-11-11T01:28:07;17.17;;;6.25;;
75220;SDS011;63802;53.232;6.570;2022-11-11T01:30:33;23.70;;;7.53;;
75220;SDS011;63802;53.232;6.570;2022-11-11T01:33:00;15.93;;;6.25;;
75220;SDS011;63802;53.232;6.570;2022-11-11T01:35:26;18.73;;;6.82;;
75220;SDS011;63802;53.232;6.570;2022-11-11T01:37:52;17.65;;;6.43;;
75220;SDS011;63802;53.232;6.570;2022-11-11T01:40:18;15.95;;;6.88;;
75220;SDS011;63802;53.232;6.570;2022-11-11T01:42:44;13.13;;;6.00;;
75220;SDS011;63802;53.232;6.570;2022-11-11T01:48:13;18.25;;;7.32;;
75220;SDS011;63802;53.232;6.570;2022-11-11T01:51:02;19.00;;;7.22;;
75220;SDS011;63802;53.232;6.570;2022-11-11T01:53:30;18.20;;;7.22;;
75220;SDS011;63802;53.232;6.570;2022-11-11T01:55:57;15.63;;;6.07;;
75220;SDS011;63802;53.232;6.570;2022-11-11T01:58:26;16.23;;;6.25;;
75220;SDS011;63802;53.232;6.570;2022-11-11T02:00:51;20.63;;;6.95;;
75220;SDS011;63802;53.232;6.570;2022-11-11T02:03:17;15.48;;;6.70;;
75220;SDS011;63802;53.232;6.570;2022-11-11T02:05:45;11.95;;;5.93;;
75220;SDS011;63802;53.232;6.570;2022-11-11T02:08:14;14.13;;;6.63;;
75220;SDS011;63802;53.232;6.570;2022-11-11T02:10:56;14.63;;;6.43;;
75220;SDS011;63802;53.232;6.570;2022-11-11T02:13:24;19.92;;;7.45;;
75220;SDS011;63802;53.232;6.570;2022-11-11T02:16:08;16.70;;;6.57;;
75220;SDS011;63802;53.232;6.570;2022-11-11T02:18:34;17.85;;;6.90;;
75220;SDS011;63802;53.232;6.570;2022-11-11T02:20:59;15.77;;;6.25;;
75220;SDS011;63802;53.232;6.570;2022-11-11T02:23:33;18.85;;;6.55;;
75220;SDS011;63802;53.232;6.570;2022-11-11T02:26:04;14.30;;;6.63;;
75220;SDS011;63802;53.232;6.570;2022-11-11T02:28:31;17.33;;;6.43;;
75220;SDS011;63802;53.232;6.570;2022-11-11T02:30:57;19.42;;;7.43;;
75220;SDS011;63802;53.232;6.570;2022-11-11T02:33:23;14.52;;;6.55;;
75220;SDS011;63802;53.232;6.570;2022-11-11T02:35:49;15.98;;;6.25;;
75220;SDS011;63802;53.232;6.570;2022-11-11T02:38:22;15.90;;;6.70;;
75220;SDS011;63802;53.232;6.570;2022-11-11T02:40:48;17.73;;;7.22;;
75220;SDS011;63802;53.232;6.570;2022-11-11T02:43:32;16.92;;;6.88;;
75220;SDS011;63802;53.232;6.570;2022-11-11T02:45:58;19.48;;;7.43;;
75220;SDS011;63802;53.232;6.570;2022-11-11T02:48:26;16.20;;;7.18;;
75220;SDS011;63802;53.232;6.570;2022-11-11T02:50:52;16.80;;;7.43;;
75220;SDS011;63802;53.232;6.570;2022-11-11T02:53:17;14.40;;;7.10;;
75220;SDS011;63802;53.232;6.570;2022-11-11T02:55:43;26.02;;;7.70;;
75220;SDS011;63802;53.232;6.570;2022-11-11T02:58:08;19.67;;;8.23;;
75220;SDS011;63802;53.232;6.570;2022-11-11T03:00:34;20.77;;;7.82;;
75220;SDS011;63802;53.232;6.570;2022-11-11T03:02:59;20.75;;;8.25;;
75220;SDS011;63802;53.232;6.570;2022-11-11T03:05:25;18.80;;;8.05;;
75220;SDS011;63802;53.232;6.570;2022-11-11T03:07:50;23.70;;;9.65;;
75220;SDS011;63802;53.232;6.570;2022-11-11T03:10:15;20.23;;;8.60;;
75220;SDS011;63802;53.232;6.570;2022-11-11T03:12:41;21.70;;;8.93;;
75220;SDS011;63802;53.232;6.570;2022-11-11T03:15:07;21.35;;;8.98;;
75220;SDS011;63802;53.232;6.570;2022-11-11T03:17:33;18.10;;;9.38;;
75220;SDS011;63802;53.232;6.570;2022-11-11T03:20:37;23.20;;;10.25;;
75220;SDS011;63802;53.232;6.570;2022-11-11T03:23:14;19.00;;;10.23;;
75220;SDS011;63802;53.232;6.570;2022-11-11T03:25:41;25.70;;;9.85;;
75220;SDS011;63802;53.232;6.570;2022-11-11T03:28:11;21.50;;;9.65;;
75220;SDS011;63802;53.232;6.570;2022-11-11T03:30:39;23.05;;;11.02;;
75220;SDS011;63802;53.232;6.570;2022-11-11T03:33:06;23.73;;;11.23;;
75220;SDS011;63802;53.232;6.570;2022-11-11T03:35:31;25.88;;;12.38;;
75220;SDS011;63802;53.232;6.570;2022-11-11T03:37:58;22.17;;;10.55;;
75220;SDS011;63802;53.232;6.570;2022-11-11T03:41:01;22.35;;;10.95;;
75220;SDS011;63802;53.232;6.570;2022-11-11T03:43:27;25.75;;;11.75;;
75220;SDS011;63802;53.232;6.570;2022-11-11T03:45:55;23.80;;;11.20;;
75220;SDS011;63802;53.232;6.570;2022-11-11T03:48:22;23.40;;;10.73;;
75220;SDS011;63802;53.232;6.570;2022-11-11T03:50:49;30.70;;;12.27;;
75220;SDS011;63802;53.232;6.570;2022-11-11T03:53:16;24.10;;;11.63;;
75220;SDS011;63802;53.232;6.570;2022-11-11T03:55:44;26.85;;;12.07;;
75220;SDS011;63802;53.232;6.570;2022-11-11T03:58:10;24.27;;;12.20;;
75220;SDS011;63802;53.232;6.570;2022-11-11T04:00:36;26.83;;;13.25;;
75220;SDS011;63802;53.232;6.570;2022-11-11T04:05:56;24.98;;;12.50;;
75220;SDS011;63802;53.232;6.570;2022-11-11T04:08:40;25.70;;;12.07;;
75220;SDS011;63802;53.232;6.570;2022-11-11T04:11:45;22.25;;;12.07;;
75220;SDS011;63802;53.232;6.570;2022-11-11T04:14:12;25.25;;;11.95;;
75220;SDS011;63802;53.232;6.570;2022-11-11T04:16:57;25.30;;;12.05;;
75220;SDS011;63802;53.232;6.570;2022-11-11T04:19:23;23.92;;;12.27;;
75220;SDS011;63802;53.232;6.570;2022-11-11T04:22:07;27.85;;;13.20;;
75220;SDS011;63802;53.232;6.570;2022-11-11T04:24:33;23.23;;;11.30;;
75220;SDS011;63802;53.232;6.570;2022-11-11T04:27:17;26.13;;;12.93;;
75220;SDS011;63802;53.232;6.570;2022-11-11T04:29:43;29.95;;;12.90;;
75220;SDS011;63802;53.232;6.570;2022-11-11T04:32:15;26.92;;;13.30;;
75220;SDS011;63802;53.232;6.570;2022-11-11T04:35:03;25.08;;;12.63;;
75220;SDS011;63802;53.232;6.570;2022-11-11T04:37:32;30.02;;;13.15;;
75220;SDS011;63802;53.232;6.570;2022-11-11T04:39:59;28.50;;;13.02;;
75220;SDS011;63802;53.232;6.570;2022-11-11T04:42:44;27.45;;;12.27;;
75220;SDS011;63802;53.232;6.570;2022-11-11T04:45:10;26.80;;;13.00;;
75220;SDS011;63802;53.232;6.570;2022-11-11T04:47:53;27.38;;;11.77;;
75220;SDS011;63802;53.232;6.570;2022-11-11T04:50:23;29.98;;;12.25;;
75220;SDS011;63802;53.232;6.570;2022-11-11T04:52:50;32.35;;;13.82;;
75220;SDS011;63802;53.232;6.570;2022-11-11T04:55:15;28.85;;;12.32;;
75220;SDS011;63802;53.232;6.570;2022-11-11T04:57:59;29.92;;;12.88;;
75220;SDS011;63802;53.232;6.570;2022-11-11T05:00:25;27.42;;;13.20;;
75220;SDS011;63802;53.232;6.570;2022-11-11T05:02:54;27.85;;;13.93;;
75220;SDS011;63802;53.232;6.570;2022-11-11T05:05:39;29.52;;;13.07;;
75220;SDS011;63802;53.232;6.570;2022-11-11T05:08:22;30.42;;;14.27;;
75220;SDS011;63802;53.232;6.570;2022-11-11T05:11:07;34.22;;;13.98;;
75220;SDS011;63802;53.232;6.570;2022-11-11T05:13:32;29.38;;;14.13;;
75220;SDS011;63802;53.232;6.570;2022-11-11T05:16:17;31.92;;;13.38;;
75220;SDS011;63802;53.232;6.570;2022-11-11T05:19:03;33.30;;;14.43;;
75220;SDS011;63802;53.232;6.570;2022-11-11T05:21:48;33.65;;;14.55;;
75220;SDS011;63802;53.232;6.570;2022-11-11T05:24:17;28.95;;;15.13;;
75220;SDS011;63802;53.232;6.570;2022-11-11T05:27:01;33.92;;;14.25;;
75220;SDS011;63802;53.232;6.570;2022-11-11T05:29:26;33.72;;;13.98;;
75220;SDS011;63802;53.232;6.570;2022-11-11T05:31:52;27.05;;;14.02;;
75220;SDS011;63802;53.232;6.570;2022-11-11T05:34:17;27.13;;;12.25;;
75220;SDS011;63802;53.232;6.570;2022-11-11T05:36:42;30.40;;;12.95;;
75220;SDS011;63802;53.232;6.570;2022-11-11T05:39:07;32.33;;;13.43;;
75220;SDS011;63802;53.232;6.570;2022-11-11T05:41:33;33.78;;;14.27;;
75220;SDS011;63802;53.232;6.570;2022-11-11T05:43:58;30.05;;;14.00;;
75220;SDS011;63802;53.232;6.570;2022-11-11T05:46:24;32.55;;;13.98;;
75220;SDS011;63802;53.232;6.570;2022-11-11T05:48:49;32.17;;;13.70;;
75220;SDS011;63802;53.232;6.570;2022-11-11T05:51:33;30.50;;;12.80;;
75220;SDS011;63802;53.232;6.570;2022-11-11T05:53:58;32.45;;;13.70;;
75220;SDS011;63802;53.232;6.570;2022-11-11T05:56:24;32.08;;;14.00;;
75220;SDS011;63802;53.232;6.570;2022-11-11T05:58:50;30.17;;;13.77;;
75220;SDS011;63802;53.232;6.570;2022-11-11T06:01:15;33.55;;;14.82;;
75220;SDS011;63802;53.232;6.570;2022-11-11T06:03:41;30.17;;;13.77;;
75220;SDS011;63802;53.232;6.570;2022-11-11T06:06:06;35.92;;;14.20;;
75220;SDS011;63802;53.232;6.570;2022-11-11T06:08:32;29.85;;;14.00;;
75220;SDS011;63802;53.232;6.570;2022-11-11T06:10:57;35.92;;;13.90;;
75220;SDS011;63802;53.232;6.570;2022-11-11T06:13:22;32.65;;;14.25;;
75220;SDS011;63802;53.232;6.570;2022-11-11T06:15:49;35.90;;;15.07;;
75220;SDS011;63802;53.232;6.570;2022-11-11T06:18:14;33.20;;;13.52;;
75220;SDS011;63802;53.232;6.570;2022-11-11T06:20:40;32.03;;;15.05;;
75220;SDS011;63802;53.232;6.570;2022-11-11T06:23:05;27.48;;;12.98;;
75220;SDS011;63802;53.232;6.570;2022-11-11T06:25:32;27.35;;;13.10;;
75220;SDS011;63802;53.232;6.570;2022-11-11T06:28:17;31.48;;;13.70;;
75220;SDS011;63802;53.232;6.570;2022-11-11T06:30:43;30.13;;;13.15;;
75220;SDS011;63802;53.232;6.570;2022-11-11T06:33:10;26.83;;;12.38;;
75220;SDS011;63802;53.232;6.570;2022-11-11T06:35:36;32.58;;;13.48;;
75220;SDS011;63802;53.232;6.570;2022-11-11T06:38:03;28.63;;;11.68;;
75220;SDS011;63802;53.232;6.570;2022-11-11T06:40:30;27.17;;;11.20;;
75220;SDS011;63802;53.232;6.570;2022-11-11T06:42:56;33.65;;;13.35;;
75220;SDS011;63802;53.232;6.570;2022-11-11T06:45:26;34.05;;;13.20;;
75220;SDS011;63802;53.232;6.570;2022-11-11T06:47:53;30.55;;;13.90;;
75220;SDS011;63802;53.232;6.570;2022-11-11T06:50:19;28.77;;;13.65;;
75220;SDS011;63802;53.232;6.570;2022-11-11T06:52:45;36.10;;;13.50;;
75220;SDS011;63802;53.232;6.570;2022-11-11T06:55:10;32.15;;;13.68;;
75220;SDS011;63802;53.232;6.570;2022-11-11T06:57:36;30.23;;;12.88;;
75220;SDS011;63802;53.232;6.570;2022-11-11T07:00:05;35.00;;;14.27;;
75220;SDS011;63802;53.232;6.570;2022-11-11T07:02:31;26.80;;;12.85;;
75220;SDS011;63802;53.232;6.570;2022-11-11T07:04:57;30.83;;;13.98;;
75220;SDS011;63802;53.232;6.570;2022-11-11T07:07:24;38.65;;;13.27;;
75220;SDS011;63802;53.232;6.570;2022-11-11T07:09:49;33.28;;;15.43;;
75220;SDS011;63802;53.232;6.570;2022-11-11T07:12:15;33.33;;;14.57;;
75220;SDS011;63802;53.232;6.570;2022-11-11T07:14:40;29.08;;;13.07;;
75220;SDS011;63802;53.232;6.570;2022-11-11T07:17:06;29.58;;;12.48;;
75220;SDS011;63802;53.232;6.570;2022-11-11T07:19:31;29.58;;;14.23;;
75220;SDS011;63802;53.232;6.570;2022-11-11T07:21:56;35.83;;;13.82;;
75220;SDS011;63802;53.232;6.570;2022-11-11T07:24:22;31.60;;;14.05;;
75220;SDS011;63802;53.232;6.570;2022-11-11T07:26:47;31.83;;;14.02;;
75220;SDS011;63802;53.232;6.570;2022-11-11T07:29:13;31.55;;;13.68;;
75220;SDS011;63802;53.232;6.570;2022-11-11T07:31:39;32.45;;;14.68;;
75220;SDS011;63802;53.232;6.570;2022-11-11T07:34:06;32.75;;;14.35;;
75220;SDS011;63802;53.232;6.570;2022-11-11T07:36:32;27.70;;;12.52;;
75220;SDS011;63802;53.232;6.570;2022-11-11T07:38:57;32.67;;;14.02;;
75220;SDS011;63802;53.232;6.570;2022-11-11T07:41:22;28.27;;;13.57;;
75220;SDS011;63802;53.232;6.570;2022-11-11T07:43:48;37.47;;;13.98;;
75220;SDS011;63802;53.232;6.570;2022-11-11T07:46:13;30.77;;;13.68;;
75220;SDS011;63802;53.232;6.570;2022-11-11T07:48:39;28.08;;;12.13;;
75220;SDS011;63802;53.232;6.570;2022-11-11T07:51:04;30.95;;;13.27;;
75220;SDS011;63802;53.232;6.570;2022-11-11T07:53:30;31.60;;;13.35;;
75220;SDS011;63802;53.232;6.570;2022-11-11T07:55:55;31.10;;;12.88;;
75220;SDS011;63802;53.232;6.570;2022-11-11T07:58:21;27.92;;;12.05;;
75220;SDS011;63802;53.232;6.570;2022-11-11T08:00:46;28.35;;;12.80;;
75220;SDS011;63802;53.232;6.570;2022-11-11T08:03:11;28.42;;;12.93;;
75220;SDS011;63802;53.232;6.570;2022-11-11T08:05:37;29.75;;;12.40;;
75220;SDS011;63802;53.232;6.570;2022-11-11T08:08:03;33.15;;;13.20;;
75220;SDS011;63802;53.232;6.570;2022-11-11T08:10:29;28.55;;;13.25;;
75220;SDS011;63802;53.232;6.570;2022-11-11T08:12:55;32.08;;;12.85;;
75220;SDS011;63802;53.232;6.570;2022-11-11T08:15:39;27.48;;;12.40;;
75220;SDS011;63802;53.232;6.570;2022-11-11T08:18:06;28.45;;;13.45;;
75220;SDS011;63802;53.232;6.570;2022-11-11T08:23:42;28.75;;;13.52;;
75220;SDS011;63802;53.232;6.570;2022-11-11T08:26:07;32.95;;;13.18;;
75220;SDS011;63802;53.232;6.570;2022-11-11T08:28:33;31.70;;;12.82;;
75220;SDS011;63802;53.232;6.570;2022-11-11T08:31:00;31.92;;;12.20;;
75220;SDS011;63802;53.232;6.570;2022-11-11T08:33:26;30.52;;;12.55;;
75220;SDS011;63802;53.232;6.570;2022-11-11T08:35:53;28.50;;;12.88;;
75220;SDS011;63802;53.232;6.570;2022-11-11T08:38:20;27.80;;;11.68;;
75220;SDS011;63802;53.232;6.570;2022-11-11T08:40:46;24.50;;;11.68;;
75220;SDS011;63802;53.232;6.570;2022-11-11T08:43:11;27.58;;;12.63;;
75220;SDS011;63802;53.232;6.570;2022-11-11T08:45:37;28.48;;;12.20;;
75220;SDS011;63802;53.232;6.570;2022-11-11T08:48:03;26.15;;;12.30;;
75220;SDS011;63802;53.232;6.570;2022-11-11T08:50:29;34.35;;;13.82;;
75220;SDS011;63802;53.232;6.570;2022-11-11T08:52:54;24.25;;;11.68;;
75220;SDS011;63802;53.232;6.570;2022-11-11T08:55:19;29.95;;;13.02;;
75220;SDS011;63802;53.232;6.570;2022-11-11T08:57:55;29.42;;;12.18;;
75220;SDS011;63802;53.232;6.570;2022-11-11T09:00:22;27.73;;;12.93;;
75220;SDS011;63802;53.232;6.570;2022-11-11T09:02:48;28.52;;;12.73;;
75220;SDS011;63802;53.232;6.570;2022-11-11T09:05:13;28.08;;;11.75;;
75220;SDS011;63802;53.232;6.570;2022-11-11T09:07:38;28.38;;;12.07;;
75220;SDS011;63802;53.232;6.570;2022-11-11T09:10:04;24.88;;;12.05;;
75220;SDS011;63802;53.232;6.570;2022-11-11T09:12:30;23.63;;;11.52;;
75220;SDS011;63802;53.232;6.570;2022-11-11T09:14:55;27.50;;;12.75;;
75220;SDS011;63802;53.232;6.570;2022-11-11T09:17:20;27.95;;;11.43;;
75220;SDS011;63802;53.232;6.570;2022-11-11T09:19:46;24.35;;;11.23;;
75220;SDS011;63802;53.232;6.570;2022-11-11T09:22:11;23.67;;;12.10;;
75220;SDS011;63802;53.232;6.570;2022-11-11T09:24:37;35.15;;;12.43;;
75220;SDS011;63802;53.232;6.570;2022-11-11T09:27:02;27.17;;;12.35;;
75220;SDS011;63802;53.232;6.570;2022-11-11T09:29:27;28.13;;;12.50;;
75220;SDS011;63802;53.232;6.570;2022-11-11T09:31:53;30.95;;;12.68;;
75220;SDS011;63802;53.232;6.570;2022-11-11T09:34:18;30.08;;;12.27;;
75220;SDS011;63802;53.232;6.570;2022-11-11T09:36:43;25.23;;;12.13;;
75220;SDS011;63802;53.232;6.570;2022-11-11T09:39:09;29.30;;;12.90;;
75220;SDS011;63802;53.232;6.570;2022-11-11T09:50:01;26.92;;;11.52;;
75220;SDS011;63802;53.232;6.570;2022-11-11T09:52:35;27.30;;;11.77;;
75220;SDS011;63802;53.232;6.570;2022-11-11T09:55:11;30.60;;;12.07;;
75220;SDS011;63802;53.232;6.570;2022-11-11T09:58:02;23.42;;;10.65;;
75220;SDS011;63802;53.232;6.570;2022-11-11T10:00:48;25.55;;;12.40;;
75220;SDS011;63802;53.232;6.570;2022-11-11T10:03:27;24.83;;;11.02;;
75220;SDS011;63802;53.232;6.570;2022-11-11T10:08:58;26.40;;;11.38;;
75220;SDS011;63802;53.232;6.570;2022-11-11T10:11:38;30.13;;;13.27;;
75220;SDS011;63802;53.232;6.570;2022-11-11T10:14:04;26.38;;;11.48;;
75220;SDS011;63802;53.232;6.570;2022-11-11T10:16:43;26.05;;;11.90;;
75220;SDS011;63802;53.232;6.570;2022-11-11T10:21:59;25.38;;;10.32;;
75220;SDS011;63802;53.232;6.570;2022-11-11T10:24:34;23.33;;;10.50;;
75220;SDS011;63802;53.232;6.570;2022-11-11T10:27:16;20.50;;;9.82;;
75220;SDS011;63802;53.232;6.570;2022-11-11T10:29:44;27.15;;;11.30;;
75220;SDS011;63802;53.232;6.570;2022-11-11T10:32:21;22.45;;;11.10;;
75220;SDS011;63802;53.232;6.570;2022-11-11T10:34:49;26.75;;;11.07;;
75220;SDS011;63802;53.232;6.570;2022-11-11T10:37:22;25.08;;;11.88;;
75220;SDS011;63802;53.232;6.570;2022-11-11T10:39:59;25.88;;;10.80;;
75220;SDS011;63802;53.232;6.570;2022-11-11T10:42:31;26.27;;;11.82;;
75220;SDS011;63802;53.232;6.570;2022-11-11T10:45:00;24.33;;;11.30;;
75220;SDS011;63802;53.232;6.570;2022-11-11T10:55:54;26.90;;;10.43;;
75220;SDS011;63802;53.232;6.570;2022-11-11T10:58:30;22.50;;;9.95;;
75220;SDS011;63802;53.232;6.570;2022-11-11T11:01:01;21.55;;;9.60;;
75220;SDS011;63802;53.232;6.570;2022-11-11T11:03:31;20.98;;;9.88;;
75220;SDS011;63802;53.232;6.570;2022-11-11T11:06:09;26.45;;;10.90;;
75220;SDS011;63802;53.232;6.570;2022-11-11T11:08:36;22.40;;;10.77;;
75220;SDS011;63802;53.232;6.570;2022-11-11T11:11:12;22.33;;;9.77;;
75220;SDS011;63802;53.232;6.570;2022-11-11T11:13:50;22.88;;;10.00;;
75220;SDS011;63802;53.232;6.570;2022-11-11T11:16:19;23.88;;;10.32;;
75220;SDS011;63802;53.232;6.570;2022-11-11T11:19:12;22.48;;;10.57;;
75220;SDS011;63802;53.232;6.570;2022-11-11T11:22:14;21.45;;;10.25;;
75220;SDS011;63802;53.232;6.570;2022-11-11T11:24:34;22.02;;;10.25;;
75220;SDS011;63802;53.232;6.570;2022-11-11T11:27:05;21.67;;;9.40;;
75220;SDS011;63802;53.232;6.570;2022-11-11T11:29:50;20.92;;;10.07;;
75220;SDS011;63802;53.232;6.570;2022-11-11T11:34:54;25.40;;;10.45;;
75220;SDS011;63802;53.232;6.570;2022-11-11T11:37:22;23.75;;;9.15;;
75220;SDS011;63802;53.232;6.570;2022-11-11T11:39:48;19.48;;;9.48;;
75220;SDS011;63802;53.232;6.570;2022-11-11T11:42:34;23.10;;;11.75;;
75220;SDS011;63802;53.232;6.570;2022-11-11T11:45:21;22.48;;;10.07;;
75220;SDS011;63802;53.232;6.570;2022-11-11T11:48:04;19.33;;;9.50;;
75220;SDS011;63802;53.232;6.570;2022-11-11T11:50:41;22.48;;;10.65;;
75220;SDS011;63802;53.232;6.570;2022-11-11T11:53:31;20.00;;;9.85;;
75220;SDS011;63802;53.232;6.570;2022-11-11T12:07:47;21.13;;;10.13;;
75220;SDS011;63802;53.232;6.570;2022-11-11T12:16:07;21.15;;;10.18;;
75220;SDS011;63802;53.232;6.570;2022-11-11T12:21:47;21.02;;;9.45;;
75220;SDS011;63802;53.232;6.570;2022-11-11T12:27:21;20.15;;;9.07;;
75220;SDS011;63802;53.232;6.570;2022-11-11T12:29:57;20.90;;;9.35;;
75220;SDS011;63802;53.232;6.570;2022-11-11T12:32:52;22.73;;;9.50;;
75220;SDS011;63802;53.232;6.570;2022-11-11T12:37:54;19.88;;;10.15;;
75220;SDS011;63802;53.232;6.570;2022-11-11T12:40:48;22.40;;;8.75;;
75220;SDS011;63802;53.232;6.570;2022-11-11T12:48:49;23.80;;;10.70;;
75220;SDS011;63802;53.232;6.570;2022-11-11T12:54:04;22.38;;;10.30;;
75220;SDS011;63802;53.232;6.570;2022-11-11T13:05:13;18.85;;;9.05;;
75220;SDS011;63802;53.232;6.570;2022-11-11T13:15:49;23.58;;;10.63;;
75220;SDS011;63802;53.232;6.570;2022-11-11T13:18:16;20.48;;;9.02;;
75220;SDS011;63802;53.232;6.570;2022-11-11T13:23:23;23.63;;;10.52;;
75220;SDS011;63802;53.232;6.570;2022-11-11T13:25:50;24.92;;;9.85;;
75220;SDS011;63802;53.232;6.570;2022-11-11T13:28:26;21.50;;;9.65;;
75220;SDS011;63802;53.232;6.570;2022-11-11T13:31:10;21.33;;;10.10;;
75220;SDS011;63802;53.232;6.570;2022-11-11T13:33:48;19.90;;;9.13;;
75220;SDS011;63802;53.232;6.570;2022-11-11T13:36:19;21.65;;;10.73;;
75220;SDS011;63802;53.232;6.570;2022-11-11T13:38:50;19.92;;;9.57;;
75220;SDS011;63802;53.232;6.570;2022-11-11T13:41:21;20.52;;;9.40;;
75220;SDS011;63802;53.232;6.570;2022-11-11T13:43:50;24.38;;;9.98;;
75220;SDS011;63802;53.232;6.570;2022-11-11T13:48:52;25.85;;;11.18;;
75220;SDS011;63802;53.232;6.570;2022-11-11T13:51:32;20.88;;;9.30;;
75220;SDS011;63802;53.232;6.570;2022-11-11T13:54:03;20.80;;;10.15;;
75220;SDS011;63802;53.232;6.570;2022-11-11T13:56:41;22.08;;;9.55;;
75220;SDS011;63802;53.232;6.570;2022-11-11T14:15:50;22.20;;;9.73;;
75220;SDS011;63802;53.232;6.570;2022-11-11T14:20:46;21.77;;;9.30;;
75220;SDS011;63802;53.232;6.570;2022-11-11T14:25:44;23.98;;;10.18;;
75220;SDS011;63802;53.232;6.570;2022-11-11T14:41:51;22.70;;;9.38;;
75220;SDS011;63802;53.232;6.570;2022-11-11T14:52:17;22.25;;;10.20;;
75220;SDS011;63802;53.232;6.570;2022-11-11T14:55:12;21.85;;;10.65;;
75220;SDS011;63802;53.232;6.570;2022-11-11T15:03:41;19.90;;;9.55;;
75220;SDS011;63802;53.232;6.570;2022-11-11T15:16:48;22.00;;;10.30;;
75220;SDS011;63802;53.232;6.570;2022-11-11T15:31:17;19.27;;;9.48;;
75220;SDS011;63802;53.232;6.570;2022-11-11T15:39:18;19.98;;;9.23;;
75220;SDS011;63802;53.232;6.570;2022-11-11T15:41:47;21.55;;;10.15;;
75220;SDS011;63802;53.232;6.570;2022-11-11T15:44:22;20.02;;;9.43;;
75220;SDS011;63802;53.232;6.570;2022-11-11T15:46:50;22.88;;;9.95;;
75220;SDS011;63802;53.232;6.570;2022-11-11T15:52:02;26.40;;;10.73;;
75220;SDS011;63802;53.232;6.570;2022-11-11T15:54:34;23.58;;;10.05;;
75220;SDS011;63802;53.232;6.570;2022-11-11T15:57:14;22.92;;;10.43;;
75220;SDS011;63802;53.232;6.570;2022-11-11T15:59:53;24.80;;;9.98;;
75220;SDS011;63802;53.232;6.570;2022-11-11T16:02:20;23.40;;;10.75;;
75220;SDS011;63802;53.232;6.570;2022-11-11T16:05:03;24.20;;;10.52;;
75220;SDS011;63802;53.232;6.570;2022-11-11T16:07:36;20.27;;;9.45;;
75220;SDS011;63802;53.232;6.570;2022-11-11T16:10:07;21.55;;;9.50;;
75220;SDS011;63802;53.232;6.570;2022-11-11T16:12:47;24.13;;;10.80;;
75220;SDS011;63802;53.232;6.570;2022-11-11T16:18:04;24.73;;;10.23;;
75220;SDS011;63802;53.232;6.570;2022-11-11T16:20:38;21.35;;;9.32;;
75220;SDS011;63802;53.232;6.570;2022-11-11T16:23:12;26.48;;;10.63;;
75220;SDS011;63802;53.232;6.570;2022-11-11T16:25:42;20.48;;;9.77;;
75220;SDS011;63802;53.232;6.570;2022-11-11T16:28:11;23.83;;;10.73;;
75220;SDS011;63802;53.232;6.570;2022-11-11T16:30:38;22.55;;;10.05;;
75220;SDS011;63802;53.232;6.570;2022-11-11T16:33:04;23.45;;;10.52;;
75220;SDS011;63802;53.232;6.570;2022-11-11T16:35:42;27.88;;;10.20;;
75220;SDS011;63802;53.232;6.570;2022-11-11T16:38:07;24.73;;;10.68;;
75220;SDS011;63802;53.232;6.570;2022-11-11T16:40:34;25.52;;;10.40;;
75220;SDS011;63802;53.232;6.570;2022-11-11T16:46:04;26.65;;;11.35;;
75220;SDS011;63802;53.232;6.570;2022-11-11T16:51:07;23.85;;;10.90;;
75220;SDS011;63802;53.232;6.570;2022-11-11T16:53:38;26.10;;;11.40;;
75220;SDS011;63802;53.232;6.570;2022-11-11T16:56:14;25.40;;;10.68;;
75220;SDS011;63802;53.232;6.570;2022-11-11T16:58:51;25.85;;;11.82;;
75220;SDS011;63802;53.232;6.570;2022-11-11T17:01:31;30.38;;;12.18;;
75220;SDS011;63802;53.232;6.570;2022-11-11T17:04:05;25.65;;;10.80;;
75220;SDS011;63802;53.232;6.570;2022-11-11T17:09:36;25.02;;;10.80;;
75220;SDS011;63802;53.232;6.570;2022-11-11T17:12:05;29.85;;;12.02;;
75220;SDS011;63802;53.232;6.570;2022-11-11T17:14:32;26.92;;;12.10;;
75220;SDS011;63802;53.232;6.570;2022-11-11T17:17:00;25.05;;;12.23;;
75220;SDS011;63802;53.232;6.570;2022-11-11T17:19:26;25.58;;;11.88;;
75220;SDS011;63802;53.232;6.570;2022-11-11T17:21:53;29.40;;;11.73;;
75220;SDS011;63802;53.232;6.570;2022-11-11T17:24:18;24.92;;;12.27;;
75220;SDS011;63802;53.232;6.570;2022-11-11T17:26:44;29.27;;;12.13;;
75220;SDS011;63802;53.232;6.570;2022-11-11T17:29:09;29.08;;;12.55;;
75220;SDS011;63802;53.232;6.570;2022-11-11T17:31:36;26.65;;;11.65;;
75220;SDS011;63802;53.232;6.570;2022-11-11T17:34:05;28.67;;;12.73;;
75220;SDS011;63802;53.232;6.570;2022-11-11T17:36:32;28.45;;;12.55;;
75220;SDS011;63802;53.232;6.570;2022-11-11T17:38:58;31.10;;;11.77;;
75220;SDS011;63802;53.232;6.570;2022-11-11T17:41:23;26.23;;;11.48;;
75220;SDS011;63802;53.232;6.570;2022-11-11T17:43:48;30.02;;;12.15;;
75220;SDS011;63802;53.232;6.570;2022-11-11T17:46:14;30.42;;;13.32;;